Time;durP1;ratioP1;P1;durP2;ratioP2;P2;SDS_P1;SDS_P2;PMS_P1;PMS_P2;Temp;Humidity;BMP_temperature;BMP_pressure;BME280_temperature;BME280_humidity;BME280_pressure;Samples;Min_cycle;Max_cycle;Signal;HPM_P1;HPM_P2
2022/01/29 00:01:32;;;;;;;;;;;;;;;2.36;88.32;98291.13;5075607;28;20288;-65
2022/01/29 00:03:58;;;;;;;;;;;;;;;2.27;89.23;98285.97;5075496;28;19981;-65
2022/01/29 00:06:23;;;;;;;;;;;;;;;2.17;89.27;98293.72;5075750;28;20050;-66
2022/01/29 00:08:48;;;;;;;;;;;;;;;2.27;89.70;98288.56;5058567;28;19924;-65
2022/01/29 00:11:15;;;;;;;;;;;;;;;2.29;89.45;98284.03;5061779;28;20289;-65
2022/01/29 00:13:41;;;;;;;;;;;;;;;2.21;90.31;98284.75;5076003;28;19923;-65
2022/01/29 00:16:06;;;;;;;;;;;;;;;2.28;90.06;98285.84;5075337;28;20369;-66
2022/01/29 00:18:32;;;;;;;;;;;;;;;2.28;90.45;98277.25;5055574;28;20283;-66
2022/01/29 00:20:57;;;;;;;;;;;;;;;2.27;89.84;98284.19;5055666;28;20417;-65
2022/01/29 00:23:22;;;;;;;;;;;;;;;2.22;90.11;98286.38;5057133;28;19967;-65
2022/01/29 00:25:48;;;;;;;;;;;;;;;2.28;90.33;98275.50;5075534;28;19971;-65
2022/01/29 00:28:14;;;;;;;;;;;;;;;2.41;89.66;98278.59;5059985;28;19920;-65
2022/01/29 00:30:42;;;;;;;;;;;;;;;2.31;89.97;98274.38;5055890;28;19952;-65
2022/01/29 00:33:08;;;;;;;;;;;;;;;2.34;89.59;98264.56;5055766;28;19996;-65
2022/01/29 00:35:33;;;;;;;;;;;;;;;2.31;89.18;98254.50;5055713;28;19916;-66
2022/01/29 00:37:58;;;;;;;;;;;;;;;2.34;89.12;98249.03;5069410;28;19916;-65
2022/01/29 00:40:24;;;;;;;;;;;;;;;2.38;89.19;98244.41;5074854;28;19921;-65
2022/01/29 00:42:49;;;;;;;;;;;;;;;2.27;89.72;98237.63;5075653;28;20003;-65
2022/01/29 00:45:15;;;;;;;;;;;;;;;2.39;88.62;98233.94;5075464;28;19919;-65
2022/01/29 00:47:40;;;;;;;;;;;;;;;2.16;90.27;98234.38;5065039;28;20262;-65
2022/01/29 00:50:06;;;;;;;;;;;;;;;2.25;89.67;98234.34;5056178;28;19995;-67
2022/01/29 00:52:31;;;;;;;;;;;;;;;2.17;90.18;98226.50;5075477;28;19916;-65
2022/01/29 00:54:56;;;;;;;;;;;;;;;2.15;90.03;98214.63;5075536;28;19913;-65
2022/01/29 00:57:22;;;;;;;;;;;;;;;2.04;90.36;98213.84;5064600;28;20396;-65
2022/01/29 00:59:47;;;;;;;;;;;;;;;2.10;89.88;98207.31;5055338;28;19913;-65
2022/01/29 01:02:13;;;;;;;;;;;;;;;2.12;90.48;98207.97;5061417;28;19917;-66
2022/01/29 01:04:39;;;;;;;;;;;;;;;2.05;90.88;98204.31;5071859;28;19912;-65
2022/01/29 01:07:08;;;;;;;;;;;;;;;2.03;90.36;98211.38;5066567;28;20444;-65
2022/01/29 01:09:33;;;;;;;;;;;;;;;2.01;90.58;98200.34;5055022;28;19924;-65
2022/01/29 01:11:59;;;;;;;;;;;;;;;2.06;89.55;98213.72;5037459;28;19974;-65
2022/01/29 01:14:24;;;;;;;;;;;;;;;2.01;89.70;98208.94;5055944;28;20456;-65
2022/01/29 01:16:49;;;;;;;;;;;;;;;2.01;89.22;98205.53;5069567;28;20376;-66
2022/01/29 01:19:14;;;;;;;;;;;;;;;2.14;88.63;98216.41;5074379;28;19923;-66
2022/01/29 01:21:40;;;;;;;;;;;;;;;2.03;89.18;98212.22;5074116;28;19931;-66
2022/01/29 01:24:05;;;;;;;;;;;;;;;2.25;87.62;98207.69;5062932;28;19920;-65
2022/01/29 01:26:30;;;;;;;;;;;;;;;2.20;87.62;98212.44;5054440;28;19917;-66
2022/01/29 01:28:56;;;;;;;;;;;;;;;2.25;87.56;98212.84;5054415;28;20320;-65
2022/01/29 01:31:21;;;;;;;;;;;;;;;2.28;86.91;98205.66;5054701;28;19920;-65
2022/01/29 01:33:47;;;;;;;;;;;;;;;2.15;87.25;98210.28;5063113;28;19923;-65
2022/01/29 01:36:15;;;;;;;;;;;;;;;2.15;88.01;98207.69;5074157;28;20353;-65
2022/01/29 01:38:49;;;;;;;;;;;;;;;2.22;87.25;98203.63;5074102;28;19916;-66
2022/01/29 01:41:20;;;;;;;;;;;;;;;2.20;87.07;98213.28;5056378;28;19920;-66
2022/01/29 01:43:45;;;;;;;;;;;;;;;2.30;86.98;98214.06;5065390;28;19969;-66
2022/01/29 01:46:10;;;;;;;;;;;;;;;2.15;86.62;98225.00;5073978;28;19946;-65
2022/01/29 01:48:36;;;;;;;;;;;;;;;2.04;87.27;98231.94;5073355;28;19916;-65
2022/01/29 01:51:01;;;;;;;;;;;;;;;2.05;87.09;98236.16;5063740;28;20348;-65
2022/01/29 01:53:26;;;;;;;;;;;;;;;2.05;87.29;98236.16;5053981;28;20335;-67
2022/01/29 01:55:52;;;;;;;;;;;;;;;2.22;86.83;98239.00;5054319;28;19982;-65
2022/01/29 01:58:17;;;;;;;;;;;;;;;2.17;86.56;98236.03;5054063;28;19924;-65
2022/01/29 02:00:43;;;;;;;;;;;;;;;2.21;86.81;98234.78;5059967;28;20578;-65
2022/01/29 02:03:09;;;;;;;;;;;;;;;2.29;85.24;98225.38;5062500;28;19924;-65
2022/01/29 02:05:34;;;;;;;;;;;;;;;2.33;85.61;98224.16;5054089;28;19923;-66
2022/01/29 02:08:01;;;;;;;;;;;;;;;2.43;84.90;98219.75;5053967;28;19917;-66
2022/01/29 02:10:27;;;;;;;;;;;;;;;2.30;84.46;98208.06;5055071;28;20414;-65
2022/01/29 02:12:58;;;;;;;;;;;;;;;2.36;85.06;98203.16;5053739;28;20016;-65
2022/01/29 02:15:24;;;;;;;;;;;;;;;2.34;85.17;98189.53;5054301;28;19935;-66
2022/01/29 02:17:50;;;;;;;;;;;;;;;2.28;85.09;98184.13;5058410;28;20273;-66
2022/01/29 02:20:18;;;;;;;;;;;;;;;2.16;85.33;98180.06;5065269;28;19921;-66
2022/01/29 02:22:44;;;;;;;;;;;;;;;2.15;85.88;98173.25;5071130;28;19958;-65
2022/01/29 02:25:28;;;;;;;;;;;;;;;2.24;85.16;98173.22;5072862;28;20364;-65
2022/01/29 02:27:54;;;;;;;;;;;;;;;2.16;85.74;98164.56;5073452;28;19920;-65
2022/01/29 02:30:19;;;;;;;;;;;;;;;2.27;85.45;98154.03;5069092;28;20262;-65
2022/01/29 02:32:45;;;;;;;;;;;;;;;2.13;85.74;98150.13;5055495;28;19916;-65
2022/01/29 02:35:10;;;;;;;;;;;;;;;2.29;84.61;98146.94;5053368;28;19931;-65
2022/01/29 02:37:36;;;;;;;;;;;;;;;2.36;83.90;98148.84;5053757;28;19959;-65
2022/01/29 02:40:01;;;;;;;;;;;;;;;2.34;84.85;98150.75;5061640;28;19921;-65
2022/01/29 02:42:27;;;;;;;;;;;;;;;2.23;84.64;98157.88;5071097;28;19916;-65
2022/01/29 02:44:52;;;;;;;;;;;;;;;2.34;83.84;98144.78;5073332;28;20277;-65
2022/01/29 02:47:29;;;;;;;;;;;;;;;2.23;84.21;98145.72;5070785;28;19959;-66
2022/01/29 02:49:54;;;;;;;;;;;;;;;2.18;85.20;98144.53;5073109;28;19916;-66
2022/01/29 02:52:19;;;;;;;;;;;;;;;2.13;84.66;98137.19;5072664;28;20258;-66
2022/01/29 02:54:45;;;;;;;;;;;;;;;2.01;85.28;98138.31;5053393;28;20003;-65
2022/01/29 02:57:10;;;;;;;;;;;;;;;2.01;85.25;98131.38;5066576;28;19923;-65
2022/01/29 02:59:35;;;;;;;;;;;;;;;2.00;85.19;98121.19;5073118;28;19916;-65
2022/01/29 03:02:00;;;;;;;;;;;;;;;2.10;84.84;98119.38;5068054;28;20376;-66
2022/01/29 03:04:26;;;;;;;;;;;;;;;2.24;84.35;98113.75;5073107;28;19920;-66
2022/01/29 03:06:51;;;;;;;;;;;;;;;2.08;84.59;98103.19;5057842;28;19928;-65
2022/01/29 03:09:16;;;;;;;;;;;;;;;2.08;83.81;98092.84;5070971;28;20384;-66
2022/01/29 03:11:41;;;;;;;;;;;;;;;2.10;84.50;98090.94;5067497;28;19944;-65
2022/01/29 03:14:07;;;;;;;;;;;;;;;2.12;84.03;98085.63;5053240;28;20003;-65
2022/01/29 03:16:32;;;;;;;;;;;;;;;2.11;84.28;98078.84;5064741;28;19920;-66
2022/01/29 03:18:57;;;;;;;;;;;;;;;2.09;85.05;98077.19;5072294;28;19963;-66
2022/01/29 03:21:22;;;;;;;;;;;;;;;2.06;84.21;98079.25;5069816;28;19927;-66
2022/01/29 03:23:48;;;;;;;;;;;;;;;2.08;84.56;98083.31;5035492;28;20366;-65
2022/01/29 03:26:13;;;;;;;;;;;;;;;2.01;84.44;98071.09;5037981;28;19924;-65
2022/01/29 03:28:38;;;;;;;;;;;;;;;2.15;83.65;98068.06;5053348;28;19917;-65
2022/01/29 03:31:04;;;;;;;;;;;;;;;2.19;83.62;98066.81;5052956;28;19919;-66
2022/01/29 03:33:29;;;;;;;;;;;;;;;2.17;83.44;98070.50;5053715;28;19917;-65
2022/01/29 03:35:54;;;;;;;;;;;;;;;2.17;84.19;98060.97;5068622;28;20337;-65
2022/01/29 03:38:20;;;;;;;;;;;;;;;2.18;84.29;98072.13;5059715;28;19917;-65
2022/01/29 03:40:48;;;;;;;;;;;;;;;2.17;84.29;98063.56;5072469;28;19927;-65
2022/01/29 03:43:16;;;;;;;;;;;;;;;2.23;82.97;98057.00;5059426;28;19927;-65
2022/01/29 03:45:41;;;;;;;;;;;;;;;2.16;83.67;98064.53;5053847;28;19917;-66
2022/01/29 03:48:06;;;;;;;;;;;;;;;1.99;85.02;98062.69;5052592;28;19928;-65
2022/01/29 03:50:33;;;;;;;;;;;;;;;2.04;84.56;98065.66;5052899;28;19978;-66
2022/01/29 03:52:58;;;;;;;;;;;;;;;2.13;83.54;98071.72;5068932;28;19962;-65
2022/01/29 03:55:23;;;;;;;;;;;;;;;2.27;83.35;98072.09;5073829;28;19972;-65
2022/01/29 03:57:48;;;;;;;;;;;;;;;2.37;82.61;98066.88;5056527;28;19958;-65
2022/01/29 04:00:14;;;;;;;;;;;;;;;2.35;83.50;98072.19;5064769;28;19916;-66
2022/01/29 04:02:39;;;;;;;;;;;;;;;2.09;83.93;98066.03;5068043;28;19916;-66
2022/01/29 04:05:05;;;;;;;;;;;;;;;2.16;83.71;98055.94;5064333;28;20330;-66
2022/01/29 04:07:30;;;;;;;;;;;;;;;2.23;83.57;98059.59;5056316;28;19925;-65
2022/01/29 04:09:55;;;;;;;;;;;;;;;2.25;83.88;98053.31;5057377;28;20289;-65
2022/01/29 04:12:23;;;;;;;;;;;;;;;2.27;83.84;98046.22;5064348;28;19924;-65
2022/01/29 04:14:49;;;;;;;;;;;;;;;2.31;83.18;98044.97;5064880;28;19916;-66
2022/01/29 04:17:15;;;;;;;;;;;;;;;2.23;83.34;98044.88;5055839;28;19916;-65
2022/01/29 04:19:40;;;;;;;;;;;;;;;2.15;83.40;98042.19;5057390;28;20011;-66
2022/01/29 04:22:06;;;;;;;;;;;;;;;2.27;83.40;98041.06;5060363;28;19939;-65
2022/01/29 04:24:32;;;;;;;;;;;;;;;2.34;82.84;98034.34;5075460;28;20333;-66
2022/01/29 04:26:58;;;;;;;;;;;;;;;2.26;83.16;98043.78;5064630;28;19917;-65
2022/01/29 04:29:23;;;;;;;;;;;;;;;2.25;83.10;98042.97;5070477;28;19999;-65
2022/01/29 04:34:20;;;;;;;;;;;;;;;2.20;83.36;98039.19;5055937;28;20007;-65
2022/01/29 04:36:45;;;;;;;;;;;;;;;2.22;83.28;98042.44;5037711;28;20015;-66
2022/01/29 04:39:11;;;;;;;;;;;;;;;2.22;83.66;98043.25;5046124;28;19970;-65
2022/01/29 04:41:36;;;;;;;;;;;;;;;2.14;83.85;98048.31;5055841;28;20054;-65
2022/01/29 04:44:01;;;;;;;;;;;;;;;2.15;83.68;98039.63;5043690;28;20086;-67
2022/01/29 04:46:27;;;;;;;;;;;;;;;2.14;83.99;98032.00;5035767;28;19925;-66
2022/01/29 04:48:53;;;;;;;;;;;;;;;2.14;83.97;98025.03;5045127;28;20370;-66
2022/01/29 04:51:18;;;;;;;;;;;;;;;2.34;83.11;98025.78;5054834;28;19924;-67
2022/01/29 04:53:44;;;;;;;;;;;;;;;2.30;83.27;98025.25;5046389;28;19917;-65
2022/01/29 04:56:09;;;;;;;;;;;;;;;2.22;82.64;98025.16;5035607;28;19971;-66
2022/01/29 04:58:35;;;;;;;;;;;;;;;2.11;83.24;98027.13;5042934;28;19916;-66
2022/01/29 05:01:00;;;;;;;;;;;;;;;2.24;82.78;98035.34;5054587;28;19916;-66
2022/01/29 05:03:25;;;;;;;;;;;;;;;2.27;83.09;98033.31;5052807;28;19916;-66
2022/01/29 05:05:51;;;;;;;;;;;;;;;2.20;82.40;98036.59;5054668;28;20042;-66
2022/01/29 05:08:17;;;;;;;;;;;;;;;2.23;83.09;98031.94;5054692;28;19976;-65
2022/01/29 05:10:42;;;;;;;;;;;;;;;2.38;82.20;98045.22;5054992;28;19921;-65
2022/01/29 05:13:10;;;;;;;;;;;;;;;2.21;82.61;98048.56;5053532;28;19922;-65
2022/01/29 05:26:53;;;;;;;;;;;;;;;2.18;82.97;98072.13;5035042;28;20028;-66
2022/01/29 05:29:19;;;;;;;;;;;;;;;2.20;83.67;98073.63;5035149;28;19917;-65
2022/01/29 05:31:44;;;;;;;;;;;;;;;2.19;83.70;98071.97;5041118;28;19919;-65
2022/01/29 05:34:12;;;;;;;;;;;;;;;2.17;84.39;98075.69;5050674;28;19970;-66
2022/01/29 05:36:37;;;;;;;;;;;;;;;2.29;83.64;98077.09;5054589;28;20350;-66
2022/01/29 05:39:03;;;;;;;;;;;;;;;2.21;83.90;98070.06;5056371;28;19920;-66
2022/01/29 05:41:29;;;;;;;;;;;;;;;2.13;84.39;98064.78;5074387;28;19963;-65
2022/01/29 05:43:54;;;;;;;;;;;;;;;2.22;84.35;98070.91;5043484;28;19948;-65
2022/01/29 05:46:20;;;;;;;;;;;;;;;2.32;83.54;98072.47;5070573;28;20293;-67
2022/01/29 05:48:45;;;;;;;;;;;;;;;2.31;84.52;98067.44;5071687;28;20773;-67
2022/01/29 05:51:11;;;;;;;;;;;;;;;2.12;86.43;98057.97;5054257;28;20239;-66
2022/01/29 05:53:36;;;;;;;;;;;;;;;2.10;86.65;98057.31;5054190;28;19924;-66
2022/01/29 05:56:01;;;;;;;;;;;;;;;2.12;87.41;98057.97;5054236;28;20372;-66
2022/01/29 05:58:26;;;;;;;;;;;;;;;2.14;87.24;98055.25;5054041;28;19916;-66
2022/01/29 06:00:52;;;;;;;;;;;;;;;2.01;88.30;98050.41;5070772;28;19920;-67
2022/01/29 06:03:17;;;;;;;;;;;;;;;2.07;87.61;98052.41;5070751;28;19916;-66
2022/01/29 06:05:42;;;;;;;;;;;;;;;1.95;89.51;98054.38;5073516;28;20011;-65
2022/01/29 06:08:08;;;;;;;;;;;;;;;2.04;88.56;98045.78;5073225;28;19917;-66
2022/01/29 06:10:33;;;;;;;;;;;;;;;1.94;89.43;98031.25;5058365;28;19928;-66
2022/01/29 06:12:58;;;;;;;;;;;;;;;2.12;88.93;98031.34;5071418;28;19974;-66
2022/01/29 06:15:24;;;;;;;;;;;;;;;2.19;88.58;98042.72;5072706;28;19922;-66
2022/01/29 06:17:49;;;;;;;;;;;;;;;2.16;89.30;98040.44;5072645;28;19920;-66
2022/01/29 06:20:14;;;;;;;;;;;;;;;2.11;89.37;98037.47;5061022;28;20386;-66
2022/01/29 06:22:42;;;;;;;;;;;;;;;1.94;89.24;98044.19;5054147;28;19916;-66
2022/01/29 06:25:08;;;;;;;;;;;;;;;2.00;88.91;98057.38;5072379;28;19924;-66
2022/01/29 06:27:33;;;;;;;;;;;;;;;1.92;90.17;98053.84;5073310;28;19947;-66
2022/01/29 06:29:58;;;;;;;;;;;;;;;1.97;90.51;98049.06;5063625;28;20376;-66
2022/01/29 06:32:24;;;;;;;;;;;;;;;2.08;89.20;98041.94;5052427;28;19941;-66
2022/01/29 06:34:50;;;;;;;;;;;;;;;1.92;90.42;98052.06;5070608;28;19924;-66
2022/01/29 06:37:15;;;;;;;;;;;;;;;2.03;90.57;98051.91;5058349;28;19924;-66
2022/01/29 06:39:40;;;;;;;;;;;;;;;2.02;90.76;98049.44;5070630;28;20045;-66
2022/01/29 06:42:05;;;;;;;;;;;;;;;1.81;91.02;98043.69;5073342;28;19924;-66
2022/01/29 06:44:31;;;;;;;;;;;;;;;1.72;92.10;98037.59;5065426;28;19916;-66
2022/01/29 06:46:56;;;;;;;;;;;;;;;1.86;91.66;98036.31;5065242;28;19960;-66
2022/01/29 06:49:21;;;;;;;;;;;;;;;1.88;91.31;98053.31;5073307;28;20285;-66
2022/01/29 06:51:46;;;;;;;;;;;;;;;2.19;90.40;98068.56;5072700;28;20010;-67
2022/01/29 06:54:11;;;;;;;;;;;;;;;1.97;90.36;98067.16;5049978;28;19920;-65
2022/01/29 06:56:37;;;;;;;;;;;;;;;1.98;90.85;98074.78;5053402;28;19921;-66
2022/01/29 06:59:02;;;;;;;;;;;;;;;1.99;90.86;98091.13;5053773;28;20362;-65
2022/01/29 07:01:28;;;;;;;;;;;;;;;2.10;90.98;98088.34;5022470;28;19917;-64
2022/01/29 07:03:53;;;;;;;;;;;;;;;1.73;92.64;98079.75;5053808;28;21686;-64
2022/01/29 07:06:18;;;;;;;;;;;;;;;1.63;93.44;98077.16;5052991;28;19923;-63
2022/01/29 07:08:43;;;;;;;;;;;;;;;1.74;93.38;98074.44;5053209;28;20015;-68
2022/01/29 07:11:09;;;;;;;;;;;;;;;1.81;92.83;98077.28;5053146;28;19927;-64
2022/01/29 07:13:35;;;;;;;;;;;;;;;1.88;92.65;98065.44;5053215;28;20419;-65
2022/01/29 07:16:00;;;;;;;;;;;;;;;1.96;92.13;98063.75;5053692;28;19966;-67
2022/01/29 07:18:25;;;;;;;;;;;;;;;1.84;92.83;98059.72;5057979;28;19999;-65
2022/01/29 07:20:51;;;;;;;;;;;;;;;1.88;92.90;98065.44;5065779;28;19924;-65
2022/01/29 07:23:16;;;;;;;;;;;;;;;1.96;92.60;98057.78;5053297;28;20023;-65
2022/01/29 07:25:42;;;;;;;;;;;;;;;2.02;92.55;98058.03;5037423;28;19970;-64
2022/01/29 07:28:07;;;;;;;;;;;;;;;1.89;93.14;98059.31;5070490;28;19917;-65
2022/01/29 07:30:42;;;;;;;;;;;;;;;2.00;92.34;98061.72;5057997;28;19917;-66
2022/01/29 07:33:07;;;;;;;;;;;;;;;2.19;90.75;98053.06;5057197;28;20258;-64
2022/01/29 07:35:32;;;;;;;;;;;;;;;2.21;91.00;98058.91;5038450;28;19970;-65
2022/01/29 07:37:58;;;;;;;;;;;;;;;2.45;91.85;98036.72;5076722;28;19916;-65
2022/01/29 07:40:23;;;;;;;;;;;;;;;2.33;89.98;98037.09;5068880;28;19931;-65
2022/01/29 07:42:48;;;;;;;;;;;;;;;2.37;89.56;98030.66;5057380;28;19924;-67
2022/01/29 07:45:13;;;;;;;;;;;;;;;2.49;88.32;98029.50;5058466;28;20350;-66
2022/01/29 07:47:39;;;;;;;;;;;;;;;2.42;88.07;98028.44;5076497;28;19923;-65
2022/01/29 07:50:04;;;;;;;;;;;;;;;2.48;87.01;98026.09;5074212;28;20301;-64
2022/01/29 07:52:31;;;;;;;;;;;;;;;2.45;86.25;98031.53;5076335;28;19984;-65
2022/01/29 07:54:56;;;;;;;;;;;;;;;2.68;84.81;98025.97;5075966;28;19995;-65
2022/01/29 07:57:22;;;;;;;;;;;;;;;2.58;85.29;98030.41;5076293;28;20026;-65
2022/01/29 07:59:47;;;;;;;;;;;;;;;2.65;84.43;98028.84;5075047;28;19960;-65
2022/01/29 08:02:12;;;;;;;;;;;;;;;2.70;85.00;98027.47;5071420;28;19924;-65
2022/01/29 08:04:37;;;;;;;;;;;;;;;2.49;85.09;98025.16;5076171;28;20281;-65
2022/01/29 08:07:03;;;;;;;;;;;;;;;2.69;84.40;98014.66;5052941;28;19920;-65
2022/01/29 08:09:28;;;;;;;;;;;;;;;2.62;84.63;98005.88;5062180;28;19931;-65
2022/01/29 08:11:53;;;;;;;;;;;;;;;2.72;84.30;98011.78;5074155;28;19986;-65
2022/01/29 08:14:18;;;;;;;;;;;;;;;2.92;82.73;98005.50;5075016;28;20015;-65
2022/01/29 08:16:44;;;;;;;;;;;;;;;2.77;83.51;98014.75;5069558;28;20357;-64
2022/01/29 08:19:09;;;;;;;;;;;;;;;2.77;83.68;98017.34;5041421;28;19924;-65
2022/01/29 08:21:34;;;;;;;;;;;;;;;2.93;83.00;98002.78;5056234;28;20414;-65
2022/01/29 08:24:00;;;;;;;;;;;;;;;2.83;82.24;97999.44;5055902;28;19916;-65
2022/01/29 08:26:25;;;;;;;;;;;;;;;2.88;82.29;97992.03;5058777;28;20329;-65
2022/01/29 08:28:50;;;;;;;;;;;;;;;3.00;80.84;97981.47;5055702;28;19924;-65
2022/01/29 08:31:15;;;;;;;;;;;;;;;2.98;81.37;97989.38;5055714;28;19959;-65
2022/01/29 08:33:41;;;;;;;;;;;;;;;2.97;81.07;97989.50;5056027;28;19924;-64
2022/01/29 08:36:07;;;;;;;;;;;;;;;3.02;81.25;97985.50;5065349;28;19916;-65
2022/01/29 08:38:33;;;;;;;;;;;;;;;3.13;80.33;97979.28;5074321;28;19982;-64
2022/01/29 08:40:58;;;;;;;;;;;;;;;3.25;79.33;97981.50;5056796;28;20383;-64
2022/01/29 08:43:24;;;;;;;;;;;;;;;3.50;78.12;97990.25;5062354;28;19920;-66
2022/01/29 08:45:50;;;;;;;;;;;;;;;3.55;77.42;97972.47;5060961;28;20328;-65
2022/01/29 08:48:15;;;;;;;;;;;;;;;3.66;76.96;97979.16;5037485;28;19917;-64
2022/01/29 08:50:40;;;;;;;;;;;;;;;3.74;76.50;97987.78;5055296;28;20338;-64
2022/01/29 08:53:06;;;;;;;;;;;;;;;3.81;76.00;97982.81;5054955;28;19920;-64
2022/01/29 08:55:36;;;;;;;;;;;;;;;3.88;75.66;97991.59;5039132;28;19924;-64
2022/01/29 08:58:01;;;;;;;;;;;;;;;3.93;75.33;97989.34;5055597;28;20017;-65
2022/01/29 09:00:27;;;;;;;;;;;;;;;3.91;74.78;97988.69;5054718;28;20013;-65
2022/01/29 09:02:52;;;;;;;;;;;;;;;3.96;74.73;97986.44;5054905;28;19999;-65
2022/01/29 09:05:18;;;;;;;;;;;;;;;3.82;74.75;97987.03;5041162;28;20304;-64
2022/01/29 09:07:44;;;;;;;;;;;;;;;4.02;74.10;97975.44;5056492;28;19973;-64
2022/01/29 09:10:11;;;;;;;;;;;;;;;4.11;73.47;97982.31;5063369;28;19924;-64
2022/01/29 09:12:37;;;;;;;;;;;;;;;4.18;73.19;97983.28;5069939;28;19935;-64
2022/01/29 09:15:02;;;;;;;;;;;;;;;4.33;72.44;97983.50;5073112;28;19916;-64
2022/01/29 09:17:27;;;;;;;;;;;;;;;5.97;88.87;97972.94;5053295;28;19930;-63
2022/01/29 09:19:53;;;;;;;;;;;;;;;5.02;71.08;97970.16;5073274;28;20297;-64
2022/01/29 09:22:18;;;;;;;;;;;;;;;4.72;71.51;97972.56;5069243;28;19939;-63
2022/01/29 09:24:43;;;;;;;;;;;;;;;4.61;72.26;97971.09;5059496;28;19924;-63
2022/01/29 09:27:08;;;;;;;;;;;;;;;4.67;72.23;97967.03;5048511;28;19999;-65
2022/01/29 09:29:34;;;;;;;;;;;;;;;4.62;72.29;97961.53;5054490;28;19917;-64
2022/01/29 09:31:59;;;;;;;;;;;;;;;4.52;73.06;97966.84;5054082;28;20429;-63
2022/01/29 09:34:24;;;;;;;;;;;;;;;4.39;72.84;97962.13;5055469;28;19923;-65
2022/01/29 09:36:49;;;;;;;;;;;;;;;4.47;73.21;97956.13;5069900;28;19947;-65
2022/01/29 09:39:14;;;;;;;;;;;;;;;4.60;73.01;97957.31;5071632;28;20353;-64
2022/01/29 09:41:44;;;;;;;;;;;;;;;4.52;72.74;97953.84;5067461;28;20259;-65
2022/01/29 09:44:09;;;;;;;;;;;;;;;4.73;72.62;97961.22;5066900;28;20265;-65
2022/01/29 09:46:35;;;;;;;;;;;;;;;5.01;71.50;97959.94;5073197;28;19959;-65
2022/01/29 09:49:00;;;;;;;;;;;;;;;5.36;70.45;97949.16;5054372;28;19935;-64
2022/01/29 09:51:26;;;;;;;;;;;;;;;5.41;70.56;97953.88;5070994;28;19917;-64
2022/01/29 09:53:52;;;;;;;;;;;;;;;5.38;70.57;97960.22;5071685;28;19912;-64
2022/01/29 09:56:17;;;;;;;;;;;;;;;5.48;70.71;97954.03;5067600;28;20274;-65
2022/01/29 09:58:42;;;;;;;;;;;;;;;5.36;71.78;97949.16;5069463;28;19915;-65
2022/01/29 10:01:07;;;;;;;;;;;;;;;5.58;71.00;97949.44;5035501;28;19961;-70
2022/01/29 10:03:33;;;;;;;;;;;;;;;5.73;70.48;97940.81;5067463;28;19943;-65
2022/01/29 10:06:00;;;;;;;;;;;;;;;5.69;70.33;97949.09;5040098;28;19927;-71
2022/01/29 10:08:26;;;;;;;;;;;;;;;5.66;70.88;97945.06;5062199;28;19916;-67
2022/01/29 10:10:53;;;;;;;;;;;;;;;5.97;69.94;97946.91;5066752;28;19927;-65
2022/01/29 10:13:29;;;;;;;;;;;;;;;5.84;70.72;97937.03;5063280;28;20419;-66
2022/01/29 10:16:06;;;;;;;;;;;;;;;5.49;71.24;97938.28;5064726;28;19920;-68
2022/01/29 10:18:32;;;;;;;;;;;;;;;5.26;72.41;97934.72;5072016;28;19997;-65
2022/01/29 10:21:08;;;;;;;;;;;;;;;5.49;71.72;97940.06;5064483;28;20369;-65
2022/01/29 10:23:33;;;;;;;;;;;;;;;5.47;71.95;97935.00;5035085;28;19996;-65
2022/01/29 10:26:00;;;;;;;;;;;;;;;5.60;73.42;97932.72;5055094;28;20672;-65
2022/01/29 10:28:26;;;;;;;;;;;;;;;5.90;72.62;97932.97;5070450;28;19994;-66
2022/01/29 10:31:01;;;;;;;;;;;;;;;6.20;70.97;97925.19;5063933;28;19917;-65
2022/01/29 10:33:31;;;;;;;;;;;;;;;6.24;70.85;97923.06;5045322;28;19920;-64
2022/01/29 10:35:57;;;;;;;;;;;;;;;6.29;70.91;97928.56;5056606;28;19988;-65
2022/01/29 10:38:24;;;;;;;;;;;;;;;6.53;70.47;97925.00;5058881;28;19985;-65
2022/01/29 10:41:09;;;;;;;;;;;;;;;6.55;70.39;97925.66;5068003;28;19946;-65
2022/01/29 10:43:34;;;;;;;;;;;;;;;6.89;69.32;97914.81;5066432;28;20571;-65
2022/01/29 10:45:59;;;;;;;;;;;;;;;6.93;68.55;97911.69;5060767;28;19970;-65
2022/01/29 10:48:40;;;;;;;;;;;;;;;7.08;68.55;97919.53;5052801;28;20425;-65
2022/01/29 10:51:09;;;;;;;;;;;;;;;7.16;68.10;97916.03;5052171;28;19916;-64
2022/01/29 10:53:34;;;;;;;;;;;;;;;7.31;68.34;97914.25;5052130;28;20007;-70
2022/01/29 10:56:00;;;;;;;;;;;;;;;7.39;67.66;97914.19;5064281;28;20077;-65
2022/01/29 10:58:25;;;;;;;;;;;;;;;7.57;67.44;97921.69;5072662;28;19916;-64
2022/01/29 11:01:09;;;;;;;;;;;;;;;7.47;67.72;97920.13;5072575;28;19932;-64
2022/01/29 11:03:34;;;;;;;;;;;;;;;7.30;68.01;97920.50;5079374;28;19916;-64
2022/01/29 11:06:00;;;;;;;;;;;;;;;7.21;68.79;97921.53;5071293;28;20254;-67
2022/01/29 11:08:25;;;;;;;;;;;;;;;7.35;68.79;97915.53;5067519;28;19943;-64
2022/01/29 11:10:51;;;;;;;;;;;;;;;7.57;68.28;97921.69;5065653;28;19946;-65
2022/01/29 11:13:16;;;;;;;;;;;;;;;7.23;68.96;97919.56;5078206;28;19920;-64
2022/01/29 11:15:41;;;;;;;;;;;;;;;7.12;71.09;97907.78;5063518;28;19985;-65
2022/01/29 11:18:07;;;;;;;;;;;;;;;7.19;71.82;97911.28;5058745;28;19917;-63
2022/01/29 11:20:32;;;;;;;;;;;;;;;7.03;72.81;97908.81;5054150;28;20327;-64
2022/01/29 11:23:04;;;;;;;;;;;;;;;7.00;72.94;97902.19;5051475;28;19924;-64
2022/01/29 11:25:31;;;;;;;;;;;;;;;7.31;73.05;97896.81;5075132;28;20381;-64
2022/01/29 11:28:15;;;;;;;;;;;;;;;7.48;72.10;97892.25;5075506;28;19916;-64
2022/01/29 11:30:45;;;;;;;;;;;;;;;7.69;71.54;97897.53;5070917;28;20246;-65
2022/01/29 11:33:14;;;;;;;;;;;;;;;7.60;71.18;97897.81;5066376;28;19982;-66
2022/01/29 11:35:51;;;;;;;;;;;;;;;7.47;71.62;97894.03;5044313;28;20373;-65
2022/01/29 11:38:27;;;;;;;;;;;;;;;7.68;71.28;97889.91;5078209;28;20385;-65
2022/01/29 11:40:58;;;;;;;;;;;;;;;7.53;72.17;97887.31;5059570;28;19927;-65
2022/01/29 11:43:27;;;;;;;;;;;;;;;7.69;71.80;97894.16;5041690;28;20354;-65
2022/01/29 11:46:10;;;;;;;;;;;;;;;7.85;70.39;97883.53;5059924;28;19951;-65
2022/01/29 11:48:50;;;;;;;;;;;;;;;7.49;71.10;97893.88;5071397;28;19920;-65
2022/01/29 11:51:35;;;;;;;;;;;;;;;7.40;71.82;97893.16;5063593;28;19917;-65
2022/01/29 11:54:01;;;;;;;;;;;;;;;7.36;71.66;97873.63;5077439;28;19933;-66
2022/01/29 11:56:28;;;;;;;;;;;;;;;7.07;72.59;97879.63;5066982;28;19980;-65
2022/01/29 11:59:12;;;;;;;;;;;;;;;7.24;72.47;97880.28;5068188;28;20389;-65
2022/01/29 12:01:37;;;;;;;;;;;;;;;7.30;72.61;97866.50;5075563;28;19920;-64
2022/01/29 12:04:03;;;;;;;;;;;;;;;7.17;73.43;97871.56;5077652;28;19924;-68
2022/01/29 12:06:32;;;;;;;;;;;;;;;7.40;72.63;97868.88;5074194;28;19927;-65
2022/01/29 12:09:12;;;;;;;;;;;;;;;7.49;72.17;97854.75;5070026;28;20277;-65
2022/01/29 12:11:39;;;;;;;;;;;;;;;7.28;73.12;97871.13;5049884;28;20376;-64
2022/01/29 12:14:13;;;;;;;;;;;;;;;7.15;73.15;97865.69;5072899;28;19970;-65
2022/01/29 12:16:54;;;;;;;;;;;;;;;7.29;73.14;97856.28;5062200;28;19921;-65
2022/01/29 12:19:39;;;;;;;;;;;;;;;6.93;74.39;97862.16;5069338;28;20637;-65
2022/01/29 12:22:12;;;;;;;;;;;;;;;7.14;74.73;97860.66;5067262;28;19962;-65
2022/01/29 12:24:38;;;;;;;;;;;;;;;7.17;73.88;97852.50;5074816;28;19944;-62
2022/01/29 12:27:04;;;;;;;;;;;;;;;7.25;73.51;97850.59;5070980;28;20019;-64
2022/01/29 12:29:32;;;;;;;;;;;;;;;7.12;73.93;97847.00;5062317;28;20019;-65
2022/01/29 12:31:57;;;;;;;;;;;;;;;6.90;74.05;97846.91;5056413;28;19916;-64
2022/01/29 12:34:24;;;;;;;;;;;;;;;6.93;74.96;97840.50;5074762;28;20014;-64
2022/01/29 12:36:50;;;;;;;;;;;;;;;7.02;74.85;97836.84;5067311;28;19917;-63
2022/01/29 12:39:21;;;;;;;;;;;;;;;7.07;74.71;97834.50;5074256;28;19923;-64
2022/01/29 12:42:04;;;;;;;;;;;;;;;7.23;73.72;97825.72;5054400;28;19978;-64
2022/01/29 12:44:29;;;;;;;;;;;;;;;7.07;74.19;97826.69;5068917;28;20325;-64
2022/01/29 12:46:54;;;;;;;;;;;;;;;7.07;74.57;97818.88;5071578;28;20003;-64
2022/01/29 12:49:21;;;;;;;;;;;;;;;7.13;74.62;97812.13;5074286;28;20076;-64
2022/01/29 12:51:56;;;;;;;;;;;;;;;7.17;74.27;97800.34;5071255;28;19963;-64
2022/01/29 12:54:21;;;;;;;;;;;;;;;7.11;74.92;97794.06;5074104;28;19995;-65
2022/01/29 12:56:47;;;;;;;;;;;;;;;7.43;74.42;97787.66;5073589;28;20374;-64
2022/01/29 12:59:13;;;;;;;;;;;;;;;7.49;73.51;97787.75;5044691;28;20358;-64
2022/01/29 13:01:39;;;;;;;;;;;;;;;7.28;74.95;97790.28;5064682;28;20308;-64
2022/01/29 13:04:12;;;;;;;;;;;;;;;7.56;74.45;97774.78;5060426;28;20442;-64
2022/01/29 13:06:37;;;;;;;;;;;;;;;7.32;75.23;97777.69;5066775;28;20007;-65
2022/01/29 13:09:11;;;;;;;;;;;;;;;7.47;75.14;97771.44;5059920;28;20028;-70